sensor_id;sensor_type;location;lat;lon;timestamp;P1;durP1;ratioP1;P2;durP2;ratioP2
37069;SDS011;22984;48.862;9.320;2022-08-05T00:00:59;4.20;;;3.72;;
37069;SDS011;22984;48.862;9.320;2022-08-05T00:03:25;7.72;;;4.88;;
37069;SDS011;22984;48.862;9.320;2022-08-05T00:05:51;5.70;;;2.88;;
37069;SDS011;22984;48.862;9.320;2022-08-05T00:08:17;3.88;;;2.75;;
37069;SDS011;22984;48.862;9.320;2022-08-05T00:10:43;3.50;;;3.20;;
37069;SDS011;22984;48.862;9.320;2022-08-05T00:13:10;3.80;;;3.00;;
37069;SDS011;22984;48.862;9.320;2022-08-05T00:15:36;4.20;;;3.33;;
37069;SDS011;22984;48.862;9.320;2022-08-05T00:18:02;3.35;;;3.00;;
37069;SDS011;22984;48.862;9.320;2022-08-05T00:20:28;6.55;;;3.40;;
37069;SDS011;22984;48.862;9.320;2022-08-05T00:22:54;3.60;;;3.30;;
37069;SDS011;22984;48.862;9.320;2022-08-05T00:25:20;6.97;;;3.05;;
37069;SDS011;22984;48.862;9.320;2022-08-05T00:27:46;3.63;;;3.10;;
37069;SDS011;22984;48.862;9.320;2022-08-05T00:30:12;3.10;;;2.90;;
37069;SDS011;22984;48.862;9.320;2022-08-05T00:32:38;4.45;;;2.80;;
37069;SDS011;22984;48.862;9.320;2022-08-05T00:35:04;4.20;;;3.00;;
37069;SDS011;22984;48.862;9.320;2022-08-05T00:37:31;3.00;;;2.80;;
37069;SDS011;22984;48.862;9.320;2022-08-05T00:39:57;3.57;;;2.77;;
37069;SDS011;22984;48.862;9.320;2022-08-05T00:42:33;4.68;;;3.50;;
37069;SDS011;22984;48.862;9.320;2022-08-05T00:45:00;3.53;;;3.22;;
37069;SDS011;22984;48.862;9.320;2022-08-05T00:47:26;4.68;;;3.15;;
37069;SDS011;22984;48.862;9.320;2022-08-05T00:49:52;3.15;;;2.65;;
37069;SDS011;22984;48.862;9.320;2022-08-05T00:52:18;2.90;;;2.60;;
37069;SDS011;22984;48.862;9.320;2022-08-05T00:54:44;3.05;;;2.80;;
37069;SDS011;22984;48.862;9.320;2022-08-05T00:57:10;6.60;;;3.22;;
37069;SDS011;22984;48.862;9.320;2022-08-05T00:59:36;4.47;;;2.88;;
37069;SDS011;22984;48.862;9.320;2022-08-05T01:02:02;6.40;;;3.00;;
37069;SDS011;22984;48.862;9.320;2022-08-05T01:04:29;3.45;;;2.90;;
37069;SDS011;22984;48.862;9.320;2022-08-05T01:06:55;2.88;;;2.67;;
37069;SDS011;22984;48.862;9.320;2022-08-05T01:09:21;4.23;;;2.60;;
37069;SDS011;22984;48.862;9.320;2022-08-05T01:11:47;3.40;;;3.10;;
37069;SDS011;22984;48.862;9.320;2022-08-05T01:14:17;6.30;;;3.60;;
37069;SDS011;22984;48.862;9.320;2022-08-05T01:16:53;7.67;;;3.07;;
37069;SDS011;22984;48.862;9.320;2022-08-05T01:27:06;5.70;;;3.37;;
37069;SDS011;22984;48.862;9.320;2022-08-05T01:29:39;7.03;;;3.10;;
37069;SDS011;22984;48.862;9.320;2022-08-05T01:32:07;10.88;;;3.30;;
37069;SDS011;22984;48.862;9.320;2022-08-05T01:34:37;7.38;;;3.70;;
37069;SDS011;22984;48.862;9.320;2022-08-05T01:39:30;5.43;;;3.33;;
37069;SDS011;22984;48.862;9.320;2022-08-05T01:41:57;5.00;;;2.90;;
37069;SDS011;22984;48.862;9.320;2022-08-05T01:44:25;6.78;;;3.10;;
37069;SDS011;22984;48.862;9.320;2022-08-05T01:46:51;6.70;;;2.20;;
37069;SDS011;22984;48.862;9.320;2022-08-05T01:49:19;4.50;;;2.78;;
37069;SDS011;22984;48.862;9.320;2022-08-05T01:51:46;9.65;;;2.63;;
37069;SDS011;22984;48.862;9.320;2022-08-05T01:54:12;8.20;;;2.35;;
37069;SDS011;22984;48.862;9.320;2022-08-05T01:56:39;7.73;;;2.70;;
37069;SDS011;22984;48.862;9.320;2022-08-05T01:59:07;5.10;;;2.50;;
37069;SDS011;22984;48.862;9.320;2022-08-05T02:01:34;4.97;;;2.78;;
37069;SDS011;22984;48.862;9.320;2022-08-05T02:04:00;5.47;;;3.05;;
37069;SDS011;22984;48.862;9.320;2022-08-05T02:06:27;8.48;;;3.10;;
37069;SDS011;22984;48.862;9.320;2022-08-05T02:08:53;6.78;;;2.65;;
37069;SDS011;22984;48.862;9.320;2022-08-05T02:11:20;8.45;;;2.28;;
37069;SDS011;22984;48.862;9.320;2022-08-05T02:16:49;13.13;;;2.38;;
37069;SDS011;22984;48.862;9.320;2022-08-05T02:21:51;6.40;;;2.40;;
37069;SDS011;22984;48.862;9.320;2022-08-05T02:24:20;3.20;;;2.20;;
37069;SDS011;22984;48.862;9.320;2022-08-05T02:26:48;11.15;;;2.80;;
37069;SDS011;22984;48.862;9.320;2022-08-05T02:29:16;4.72;;;2.70;;
37069;SDS011;22984;48.862;9.320;2022-08-05T02:31:44;5.50;;;2.30;;
37069;SDS011;22984;48.862;9.320;2022-08-05T02:34:11;13.53;;;2.87;;
37069;SDS011;22984;48.862;9.320;2022-08-05T02:36:40;7.75;;;2.28;;
37069;SDS011;22984;48.862;9.320;2022-08-05T02:39:07;8.90;;;2.60;;
37069;SDS011;22984;48.862;9.320;2022-08-05T02:41:36;8.38;;;2.35;;
37069;SDS011;22984;48.862;9.320;2022-08-05T02:44:07;5.60;;;2.53;;
37069;SDS011;22984;48.862;9.320;2022-08-05T02:46:34;11.40;;;3.00;;
37069;SDS011;22984;48.862;9.320;2022-08-05T02:49:00;7.25;;;2.63;;
37069;SDS011;22984;48.862;9.320;2022-08-05T02:51:26;9.95;;;2.30;;
37069;SDS011;22984;48.862;9.320;2022-08-05T02:53:52;5.57;;;2.80;;
37069;SDS011;22984;48.862;9.320;2022-08-05T02:56:19;7.93;;;2.47;;
37069;SDS011;22984;48.862;9.320;2022-08-05T02:58:45;6.32;;;2.20;;
37069;SDS011;22984;48.862;9.320;2022-08-05T03:01:13;13.68;;;2.83;;
37069;SDS011;22984;48.862;9.320;2022-08-05T03:03:42;9.25;;;2.40;;
37069;SDS011;22984;48.862;9.320;2022-08-05T03:06:09;7.20;;;2.28;;
37069;SDS011;22984;48.862;9.320;2022-08-05T03:08:36;9.15;;;2.90;;
37069;SDS011;22984;48.862;9.320;2022-08-05T03:11:02;6.35;;;2.85;;
37069;SDS011;22984;48.862;9.320;2022-08-05T03:13:28;7.35;;;3.10;;
37069;SDS011;22984;48.862;9.320;2022-08-05T03:15:54;6.30;;;2.53;;
37069;SDS011;22984;48.862;9.320;2022-08-05T03:18:22;4.00;;;2.90;;
37069;SDS011;22984;48.862;9.320;2022-08-05T03:20:48;12.10;;;3.00;;
37069;SDS011;22984;48.862;9.320;2022-08-05T03:23:14;7.10;;;2.40;;
37069;SDS011;22984;48.862;9.320;2022-08-05T03:25:40;10.48;;;2.58;;
37069;SDS011;22984;48.862;9.320;2022-08-05T03:28:07;11.77;;;2.47;;
37069;SDS011;22984;48.862;9.320;2022-08-05T03:30:33;10.98;;;2.60;;
37069;SDS011;22984;48.862;9.320;2022-08-05T03:33:00;8.27;;;2.80;;
37069;SDS011;22984;48.862;9.320;2022-08-05T03:35:26;9.85;;;2.70;;
37069;SDS011;22984;48.862;9.320;2022-08-05T03:37:55;9.30;;;2.72;;
37069;SDS011;22984;48.862;9.320;2022-08-05T03:40:21;9.70;;;2.47;;
37069;SDS011;22984;48.862;9.320;2022-08-05T03:42:47;9.07;;;2.63;;
37069;SDS011;22984;48.862;9.320;2022-08-05T03:45:13;12.10;;;3.13;;
37069;SDS011;22984;48.862;9.320;2022-08-05T03:47:39;9.88;;;2.45;;
37069;SDS011;22984;48.862;9.320;2022-08-05T03:50:05;8.90;;;2.85;;
37069;SDS011;22984;48.862;9.320;2022-08-05T03:52:36;9.05;;;2.63;;
37069;SDS011;22984;48.862;9.320;2022-08-05T03:55:07;6.93;;;3.03;;
37069;SDS011;22984;48.862;9.320;2022-08-05T03:57:35;5.22;;;3.13;;
37069;SDS011;22984;48.862;9.320;2022-08-05T04:00:04;7.47;;;3.03;;
37069;SDS011;22984;48.862;9.320;2022-08-05T04:02:31;7.95;;;2.72;;
37069;SDS011;22984;48.862;9.320;2022-08-05T04:04:59;5.20;;;2.60;;
37069;SDS011;22984;48.862;9.320;2022-08-05T04:07:26;6.97;;;2.80;;
37069;SDS011;22984;48.862;9.320;2022-08-05T04:09:52;6.38;;;3.40;;
37069;SDS011;22984;48.862;9.320;2022-08-05T04:12:19;8.32;;;3.05;;
37069;SDS011;22984;48.862;9.320;2022-08-05T04:14:45;8.68;;;3.00;;
37069;SDS011;22984;48.862;9.320;2022-08-05T04:17:11;6.70;;;3.15;;
37069;SDS011;22984;48.862;9.320;2022-08-05T04:19:44;6.28;;;3.00;;
37069;SDS011;22984;48.862;9.320;2022-08-05T04:22:11;7.30;;;3.35;;
37069;SDS011;22984;48.862;9.320;2022-08-05T04:24:37;6.85;;;2.92;;
37069;SDS011;22984;48.862;9.320;2022-08-05T04:27:03;5.57;;;3.10;;
37069;SDS011;22984;48.862;9.320;2022-08-05T04:29:30;9.55;;;2.95;;
37069;SDS011;22984;48.862;9.320;2022-08-05T04:31:56;9.95;;;2.97;;
37069;SDS011;22984;48.862;9.320;2022-08-05T04:34:22;9.15;;;2.75;;
37069;SDS011;22984;48.862;9.320;2022-08-05T04:36:48;5.90;;;2.72;;
37069;SDS011;22984;48.862;9.320;2022-08-05T04:39:14;12.27;;;3.57;;
37069;SDS011;22984;48.862;9.320;2022-08-05T04:41:40;7.97;;;2.60;;
37069;SDS011;22984;48.862;9.320;2022-08-05T04:44:06;8.85;;;2.95;;
37069;SDS011;22984;48.862;9.320;2022-08-05T04:46:32;19.55;;;3.25;;
37069;SDS011;22984;48.862;9.320;2022-08-05T04:48:58;8.32;;;2.92;;
37069;SDS011;22984;48.862;9.320;2022-08-05T04:51:24;11.40;;;2.55;;
37069;SDS011;22984;48.862;9.320;2022-08-05T04:53:50;13.48;;;2.60;;
37069;SDS011;22984;48.862;9.320;2022-08-05T04:56:16;7.65;;;2.65;;
37069;SDS011;22984;48.862;9.320;2022-08-05T04:58:42;9.98;;;3.55;;
37069;SDS011;22984;48.862;9.320;2022-08-05T05:01:08;13.48;;;3.70;;
37069;SDS011;22984;48.862;9.320;2022-08-05T05:03:34;11.02;;;3.33;;
37069;SDS011;22984;48.862;9.320;2022-08-05T05:06:00;10.00;;;3.15;;
37069;SDS011;22984;48.862;9.320;2022-08-05T05:08:26;10.88;;;3.20;;
37069;SDS011;22984;48.862;9.320;2022-08-05T05:10:52;12.45;;;2.90;;
37069;SDS011;22984;48.862;9.320;2022-08-05T05:13:20;17.27;;;3.90;;
37069;SDS011;22984;48.862;9.320;2022-08-05T05:15:46;25.52;;;3.60;;
37069;SDS011;22984;48.862;9.320;2022-08-05T05:18:15;10.80;;;3.53;;
37069;SDS011;22984;48.862;9.320;2022-08-05T05:20:41;13.18;;;3.28;;
37069;SDS011;22984;48.862;9.320;2022-08-05T05:23:08;18.03;;;3.10;;
37069;SDS011;22984;48.862;9.320;2022-08-05T05:25:34;7.57;;;3.33;;
37069;SDS011;22984;48.862;9.320;2022-08-05T05:28:00;13.55;;;3.50;;
37069;SDS011;22984;48.862;9.320;2022-08-05T05:30:26;16.83;;;3.47;;
37069;SDS011;22984;48.862;9.320;2022-08-05T05:32:52;12.48;;;3.63;;
37069;SDS011;22984;48.862;9.320;2022-08-05T05:35:18;19.90;;;3.95;;
37069;SDS011;22984;48.862;9.320;2022-08-05T05:37:47;15.75;;;3.45;;
37069;SDS011;22984;48.862;9.320;2022-08-05T05:40:13;20.85;;;4.47;;
37069;SDS011;22984;48.862;9.320;2022-08-05T05:42:40;16.25;;;4.00;;
37069;SDS011;22984;48.862;9.320;2022-08-05T05:45:06;11.73;;;4.43;;
37069;SDS011;22984;48.862;9.320;2022-08-05T05:47:33;17.52;;;4.18;;
37069;SDS011;22984;48.862;9.320;2022-08-05T05:49:59;23.42;;;5.95;;
37069;SDS011;22984;48.862;9.320;2022-08-05T05:52:25;13.93;;;3.97;;
37069;SDS011;22984;48.862;9.320;2022-08-05T05:54:51;14.60;;;4.43;;
37069;SDS011;22984;48.862;9.320;2022-08-05T05:57:18;14.73;;;4.17;;
37069;SDS011;22984;48.862;9.320;2022-08-05T05:59:44;11.33;;;3.43;;
37069;SDS011;22984;48.862;9.320;2022-08-05T06:02:10;16.48;;;3.55;;
37069;SDS011;22984;48.862;9.320;2022-08-05T06:04:36;11.80;;;3.97;;
37069;SDS011;22984;48.862;9.320;2022-08-05T06:07:02;13.52;;;3.80;;
37069;SDS011;22984;48.862;9.320;2022-08-05T06:09:28;15.13;;;3.45;;
37069;SDS011;22984;48.862;9.320;2022-08-05T06:11:54;20.53;;;4.30;;
37069;SDS011;22984;48.862;9.320;2022-08-05T06:14:20;8.52;;;3.30;;
37069;SDS011;22984;48.862;9.320;2022-08-05T06:16:47;9.73;;;3.22;;
37069;SDS011;22984;48.862;9.320;2022-08-05T06:19:13;7.40;;;3.00;;
37069;SDS011;22984;48.862;9.320;2022-08-05T06:21:39;6.28;;;2.80;;
37069;SDS011;22984;48.862;9.320;2022-08-05T06:24:05;14.68;;;3.65;;
37069;SDS011;22984;48.862;9.320;2022-08-05T06:26:31;11.77;;;3.15;;
37069;SDS011;22984;48.862;9.320;2022-08-05T06:28:57;11.32;;;2.85;;
37069;SDS011;22984;48.862;9.320;2022-08-05T06:31:23;5.18;;;2.50;;
37069;SDS011;22984;48.862;9.320;2022-08-05T06:33:49;8.52;;;2.50;;
37069;SDS011;22984;48.862;9.320;2022-08-05T06:36:15;5.35;;;2.30;;
37069;SDS011;22984;48.862;9.320;2022-08-05T06:38:41;4.63;;;2.20;;
37069;SDS011;22984;48.862;9.320;2022-08-05T06:41:07;6.18;;;2.22;;
37069;SDS011;22984;48.862;9.320;2022-08-05T06:43:34;6.63;;;2.80;;
37069;SDS011;22984;48.862;9.320;2022-08-05T06:46:00;5.05;;;2.50;;
37069;SDS011;22984;48.862;9.320;2022-08-05T06:48:26;7.40;;;2.50;;
37069;SDS011;22984;48.862;9.320;2022-08-05T06:50:53;6.25;;;2.45;;
37069;SDS011;22984;48.862;9.320;2022-08-05T06:53:19;8.10;;;2.33;;
37069;SDS011;22984;48.862;9.320;2022-08-05T06:55:45;7.47;;;2.60;;
37069;SDS011;22984;48.862;9.320;2022-08-05T06:58:11;10.48;;;3.03;;
37069;SDS011;22984;48.862;9.320;2022-08-05T07:00:37;7.60;;;2.38;;
37069;SDS011;22984;48.862;9.320;2022-08-05T07:03:03;6.88;;;2.67;;
37069;SDS011;22984;48.862;9.320;2022-08-05T07:05:29;4.10;;;2.55;;
37069;SDS011;22984;48.862;9.320;2022-08-05T07:07:55;10.53;;;3.20;;
37069;SDS011;22984;48.862;9.320;2022-08-05T07:10:21;6.53;;;2.83;;
37069;SDS011;22984;48.862;9.320;2022-08-05T07:12:49;8.35;;;2.70;;
37069;SDS011;22984;48.862;9.320;2022-08-05T07:15:34;6.20;;;2.35;;
37069;SDS011;22984;48.862;9.320;2022-08-05T07:18:18;4.78;;;2.53;;
37069;SDS011;22984;48.862;9.320;2022-08-05T07:20:44;4.30;;;2.45;;
37069;SDS011;22984;48.862;9.320;2022-08-05T07:23:10;5.00;;;2.58;;
37069;SDS011;22984;48.862;9.320;2022-08-05T07:25:36;5.20;;;2.90;;
37069;SDS011;22984;48.862;9.320;2022-08-05T07:28:03;5.40;;;2.80;;
37069;SDS011;22984;48.862;9.320;2022-08-05T07:30:30;9.73;;;2.63;;
37069;SDS011;22984;48.862;9.320;2022-08-05T07:32:56;7.15;;;2.70;;
37069;SDS011;22984;48.862;9.320;2022-08-05T07:35:22;4.30;;;2.20;;
37069;SDS011;22984;48.862;9.320;2022-08-05T07:37:48;5.30;;;2.35;;
37069;SDS011;22984;48.862;9.320;2022-08-05T07:40:14;8.23;;;2.30;;
37069;SDS011;22984;48.862;9.320;2022-08-05T07:42:40;4.07;;;2.45;;
37069;SDS011;22984;48.862;9.320;2022-08-05T07:45:07;7.90;;;2.60;;
37069;SDS011;22984;48.862;9.320;2022-08-05T07:47:33;5.15;;;2.55;;
37069;SDS011;22984;48.862;9.320;2022-08-05T07:49:59;11.07;;;2.75;;
37069;SDS011;22984;48.862;9.320;2022-08-05T07:52:25;4.72;;;2.17;;
37069;SDS011;22984;48.862;9.320;2022-08-05T07:54:51;7.10;;;2.30;;
37069;SDS011;22984;48.862;9.320;2022-08-05T07:57:17;3.03;;;2.45;;
37069;SDS011;22984;48.862;9.320;2022-08-05T07:59:43;4.03;;;2.58;;
37069;SDS011;22984;48.862;9.320;2022-08-05T08:02:09;4.43;;;2.20;;
37069;SDS011;22984;48.862;9.320;2022-08-05T08:04:35;8.60;;;2.55;;
37069;SDS011;22984;48.862;9.320;2022-08-05T08:07:01;4.73;;;2.07;;
37069;SDS011;22984;48.862;9.320;2022-08-05T08:09:28;5.07;;;2.30;;
37069;SDS011;22984;48.862;9.320;2022-08-05T08:11:54;5.28;;;2.15;;
37069;SDS011;22984;48.862;9.320;2022-08-05T08:14:20;6.88;;;1.98;;
37069;SDS011;22984;48.862;9.320;2022-08-05T08:16:46;5.22;;;2.20;;
37069;SDS011;22984;48.862;9.320;2022-08-05T08:19:12;3.10;;;1.50;;
37069;SDS011;22984;48.862;9.320;2022-08-05T08:21:38;1.93;;;1.83;;
37069;SDS011;22984;48.862;9.320;2022-08-05T08:24:06;2.15;;;1.30;;
37069;SDS011;22984;48.862;9.320;2022-08-05T08:26:32;2.67;;;1.55;;
37069;SDS011;22984;48.862;9.320;2022-08-05T08:28:58;2.85;;;1.65;;
37069;SDS011;22984;48.862;9.320;2022-08-05T08:31:24;4.50;;;1.65;;
37069;SDS011;22984;48.862;9.320;2022-08-05T08:33:50;2.85;;;1.40;;
37069;SDS011;22984;48.862;9.320;2022-08-05T08:36:16;4.63;;;1.77;;
37069;SDS011;22984;48.862;9.320;2022-08-05T08:38:43;7.00;;;1.50;;
37069;SDS011;22984;48.862;9.320;2022-08-05T08:41:09;1.80;;;1.50;;
37069;SDS011;22984;48.862;9.320;2022-08-05T08:43:37;1.50;;;1.40;;
37069;SDS011;22984;48.862;9.320;2022-08-05T08:46:04;1.90;;;1.63;;
37069;SDS011;22984;48.862;9.320;2022-08-05T08:48:30;3.85;;;1.58;;
37069;SDS011;22984;48.862;9.320;2022-08-05T08:50:57;2.72;;;1.50;;
37069;SDS011;22984;48.862;9.320;2022-08-05T08:53:24;2.30;;;1.50;;
37069;SDS011;22984;48.862;9.320;2022-08-05T08:55:53;1.77;;;1.63;;
37069;SDS011;22984;48.862;9.320;2022-08-05T08:58:19;4.75;;;1.63;;
37069;SDS011;22984;48.862;9.320;2022-08-05T09:00:46;2.53;;;1.33;;
37069;SDS011;22984;48.862;9.320;2022-08-05T09:03:12;3.15;;;1.45;;
37069;SDS011;22984;48.862;9.320;2022-08-05T09:05:38;1.63;;;1.33;;
37069;SDS011;22984;48.862;9.320;2022-08-05T09:08:04;2.78;;;1.42;;
37069;SDS011;22984;48.862;9.320;2022-08-05T09:10:32;2.72;;;1.10;;
37069;SDS011;22984;48.862;9.320;2022-08-05T09:12:58;5.82;;;1.73;;
37069;SDS011;22984;48.862;9.320;2022-08-05T09:15:24;3.30;;;1.55;;
37069;SDS011;22984;48.862;9.320;2022-08-05T09:17:50;1.45;;;1.35;;
37069;SDS011;22984;48.862;9.320;2022-08-05T09:20:16;3.47;;;1.33;;
37069;SDS011;22984;48.862;9.320;2022-08-05T09:25:26;1.87;;;1.47;;
37069;SDS011;22984;48.862;9.320;2022-08-05T09:27:53;4.10;;;1.60;;
37069;SDS011;22984;48.862;9.320;2022-08-05T09:30:19;2.95;;;1.60;;
37069;SDS011;22984;48.862;9.320;2022-08-05T09:32:45;2.20;;;1.42;;
37069;SDS011;22984;48.862;9.320;2022-08-05T09:35:12;2.53;;;1.90;;
37069;SDS011;22984;48.862;9.320;2022-08-05T09:37:49;2.50;;;1.45;;
37069;SDS011;22984;48.862;9.320;2022-08-05T09:40:28;1.60;;;1.45;;
37069;SDS011;22984;48.862;9.320;2022-08-05T09:42:55;1.85;;;1.52;;
37069;SDS011;22984;48.862;9.320;2022-08-05T09:45:21;3.38;;;1.40;;
37069;SDS011;22984;48.862;9.320;2022-08-05T09:47:58;2.80;;;1.70;;
37069;SDS011;22984;48.862;9.320;2022-08-05T09:50:34;4.25;;;1.50;;
37069;SDS011;22984;48.862;9.320;2022-08-05T09:53:00;3.00;;;1.60;;
37069;SDS011;22984;48.862;9.320;2022-08-05T09:55:26;3.20;;;1.70;;
37069;SDS011;22984;48.862;9.320;2022-08-05T09:58:08;3.85;;;1.55;;
37069;SDS011;22984;48.862;9.320;2022-08-05T10:00:34;2.55;;;1.52;;
37069;SDS011;22984;48.862;9.320;2022-08-05T10:03:00;2.00;;;1.37;;
37069;SDS011;22984;48.862;9.320;2022-08-05T10:05:33;3.17;;;1.47;;
37069;SDS011;22984;48.862;9.320;2022-08-05T10:08:01;2.08;;;1.80;;
37069;SDS011;22984;48.862;9.320;2022-08-05T10:10:34;2.03;;;1.50;;
37069;SDS011;22984;48.862;9.320;2022-08-05T10:13:01;1.60;;;1.30;;
37069;SDS011;22984;48.862;9.320;2022-08-05T10:15:31;3.15;;;1.60;;
37069;SDS011;22984;48.862;9.320;2022-08-05T10:18:08;4.00;;;1.42;;
37069;SDS011;22984;48.862;9.320;2022-08-05T10:20:36;1.40;;;1.27;;
37069;SDS011;22984;48.862;9.320;2022-08-05T10:23:03;2.80;;;1.40;;
37069;SDS011;22984;48.862;9.320;2022-08-05T10:25:29;3.35;;;1.10;;
37069;SDS011;22984;48.862;9.320;2022-08-05T10:27:56;1.40;;;1.05;;
37069;SDS011;22984;48.862;9.320;2022-08-05T10:30:22;1.60;;;1.00;;
37069;SDS011;22984;48.862;9.320;2022-08-05T10:32:48;7.90;;;1.40;;
37069;SDS011;22984;48.862;9.320;2022-08-05T10:35:14;2.90;;;1.58;;
37069;SDS011;22984;48.862;9.320;2022-08-05T10:37:41;1.77;;;1.30;;
37069;SDS011;22984;48.862;9.320;2022-08-05T10:40:09;3.38;;;1.05;;
37069;SDS011;22984;48.862;9.320;2022-08-05T10:42:39;3.22;;;1.17;;
37069;SDS011;22984;48.862;9.320;2022-08-05T10:45:07;2.53;;;0.82;;
37069;SDS011;22984;48.862;9.320;2022-08-05T10:47:34;1.77;;;0.88;;
37069;SDS011;22984;48.862;9.320;2022-08-05T10:50:08;1.17;;;1.07;;
37069;SDS011;22984;48.862;9.320;2022-08-05T10:55:12;1.10;;;1.00;;
37069;SDS011;22984;48.862;9.320;2022-08-05T10:57:39;1.65;;;0.90;;
37069;SDS011;22984;48.862;9.320;2022-08-05T11:02:35;2.33;;;0.85;;
37069;SDS011;22984;48.862;9.320;2022-08-05T11:05:03;5.68;;;0.90;;
37069;SDS011;22984;48.862;9.320;2022-08-05T11:07:29;3.95;;;0.95;;
37069;SDS011;22984;48.862;9.320;2022-08-05T11:09:55;1.20;;;1.00;;
37069;SDS011;22984;48.862;9.320;2022-08-05T11:17:44;3.40;;;1.05;;
37069;SDS011;22984;48.862;9.320;2022-08-05T11:22:56;2.58;;;0.80;;
37069;SDS011;22984;48.862;9.320;2022-08-05T11:25:37;2.73;;;1.13;;
37069;SDS011;22984;48.862;9.320;2022-08-05T11:33:28;1.30;;;1.10;;
37069;SDS011;22984;48.862;9.320;2022-08-05T11:35:55;3.03;;;1.48;;
37069;SDS011;22984;48.862;9.320;2022-08-05T11:38:49;3.90;;;0.73;;
37069;SDS011;22984;48.862;9.320;2022-08-05T11:43:52;3.80;;;1.33;;
37069;SDS011;22984;48.862;9.320;2022-08-05T11:46:25;2.78;;;0.70;;
37069;SDS011;22984;48.862;9.320;2022-08-05T11:48:51;5.75;;;1.75;;
37069;SDS011;22984;48.862;9.320;2022-08-05T11:51:17;4.57;;;1.17;;
37069;SDS011;22984;48.862;9.320;2022-08-05T11:53:44;1.13;;;0.83;;
37069;SDS011;22984;48.862;9.320;2022-08-05T11:56:11;4.90;;;1.20;;
37069;SDS011;22984;48.862;9.320;2022-08-05T11:58:38;3.30;;;1.00;;
37069;SDS011;22984;48.862;9.320;2022-08-05T12:01:06;2.17;;;1.08;;
37069;SDS011;22984;48.862;9.320;2022-08-05T12:03:40;3.30;;;1.08;;
37069;SDS011;22984;48.862;9.320;2022-08-05T12:06:06;3.00;;;0.95;;
37069;SDS011;22984;48.862;9.320;2022-08-05T12:08:38;1.70;;;1.20;;
37069;SDS011;22984;48.862;9.320;2022-08-05T12:11:04;2.70;;;1.00;;
37069;SDS011;22984;48.862;9.320;2022-08-05T12:13:32;1.83;;;1.00;;
37069;SDS011;22984;48.862;9.320;2022-08-05T12:15:59;4.40;;;1.20;;
37069;SDS011;22984;48.862;9.320;2022-08-05T12:18:43;2.58;;;1.25;;
37069;SDS011;22984;48.862;9.320;2022-08-05T12:23:36;1.98;;;1.17;;
37069;SDS011;22984;48.862;9.320;2022-08-05T12:26:02;2.75;;;1.20;;
37069;SDS011;22984;48.862;9.320;2022-08-05T12:28:28;2.60;;;1.00;;
37069;SDS011;22984;48.862;9.320;2022-08-05T12:30:55;5.43;;;1.48;;
37069;SDS011;22984;48.862;9.320;2022-08-05T12:33:21;2.13;;;1.02;;
37069;SDS011;22984;48.862;9.320;2022-08-05T12:35:48;2.45;;;1.40;;
37069;SDS011;22984;48.862;9.320;2022-08-05T12:38:14;3.60;;;0.82;;
37069;SDS011;22984;48.862;9.320;2022-08-05T12:40:40;5.97;;;1.13;;
37069;SDS011;22984;48.862;9.320;2022-08-05T12:43:06;4.50;;;1.27;;
37069;SDS011;22984;48.862;9.320;2022-08-05T12:45:32;1.35;;;1.05;;
37069;SDS011;22984;48.862;9.320;2022-08-05T12:47:58;3.63;;;1.38;;
37069;SDS011;22984;48.862;9.320;2022-08-05T12:50:24;2.00;;;1.40;;
37069;SDS011;22984;48.862;9.320;2022-08-05T12:52:54;2.90;;;1.33;;
37069;SDS011;22984;48.862;9.320;2022-08-05T12:57:47;4.30;;;1.20;;
37069;SDS011;22984;48.862;9.320;2022-08-05T13:00:20;5.38;;;1.58;;
37069;SDS011;22984;48.862;9.320;2022-08-05T13:02:46;2.80;;;1.20;;
37069;SDS011;22984;48.862;9.320;2022-08-05T13:05:12;2.17;;;1.15;;
37069;SDS011;22984;48.862;9.320;2022-08-05T13:07:39;5.53;;;1.27;;
37069;SDS011;22984;48.862;9.320;2022-08-05T13:10:12;1.40;;;1.00;;
37069;SDS011;22984;48.862;9.320;2022-08-05T13:12:39;2.00;;;1.15;;
37069;SDS011;22984;48.862;9.320;2022-08-05T13:15:07;2.13;;;1.10;;
37069;SDS011;22984;48.862;9.320;2022-08-05T13:17:34;2.10;;;1.08;;
37069;SDS011;22984;48.862;9.320;2022-08-05T13:22:29;5.50;;;1.30;;
37069;SDS011;22984;48.862;9.320;2022-08-05T13:25:00;2.30;;;1.40;;
37069;SDS011;22984;48.862;9.320;2022-08-05T13:27:30;1.87;;;1.17;;
37069;SDS011;22984;48.862;9.320;2022-08-05T13:29:57;3.90;;;1.10;;
37069;SDS011;22984;48.862;9.320;2022-08-05T13:32:23;6.30;;;1.20;;
37069;SDS011;22984;48.862;9.320;2022-08-05T13:34:49;3.60;;;1.30;;
37069;SDS011;22984;48.862;9.320;2022-08-05T13:37:16;5.35;;;1.10;;
37069;SDS011;22984;48.862;9.320;2022-08-05T13:39:42;2.20;;;1.20;;
37069;SDS011;22984;48.862;9.320;2022-08-05T13:42:09;4.10;;;1.20;;
37069;SDS011;22984;48.862;9.320;2022-08-05T13:44:35;1.70;;;0.90;;
37069;SDS011;22984;48.862;9.320;2022-08-05T13:47:01;4.18;;;1.00;;
37069;SDS011;22984;48.862;9.320;2022-08-05T13:49:27;3.97;;;1.30;;
37069;SDS011;22984;48.862;9.320;2022-08-05T13:51:53;2.80;;;1.10;;
37069;SDS011;22984;48.862;9.320;2022-08-05T13:54:19;4.30;;;1.17;;
37069;SDS011;22984;48.862;9.320;2022-08-05T13:56:45;1.15;;;1.02;;
37069;SDS011;22984;48.862;9.320;2022-08-05T13:59:12;2.13;;;0.80;;
37069;SDS011;22984;48.862;9.320;2022-08-05T14:01:38;2.15;;;1.23;;
37069;SDS011;22984;48.862;9.320;2022-08-05T14:04:04;7.07;;;1.00;;
37069;SDS011;22984;48.862;9.320;2022-08-05T14:06:49;3.00;;;1.38;;
37069;SDS011;22984;48.862;9.320;2022-08-05T14:09:15;3.60;;;1.13;;
37069;SDS011;22984;48.862;9.320;2022-08-05T14:11:41;4.00;;;1.10;;
37069;SDS011;22984;48.862;9.320;2022-08-05T14:14:07;3.22;;;1.20;;
37069;SDS011;22984;48.862;9.320;2022-08-05T14:16:33;3.00;;;1.05;;
37069;SDS011;22984;48.862;9.320;2022-08-05T14:18:59;2.72;;;1.38;;
37069;SDS011;22984;48.862;9.320;2022-08-05T14:21:25;7.75;;;1.60;;
37069;SDS011;22984;48.862;9.320;2022-08-05T14:23:51;2.13;;;0.80;;
37069;SDS011;22984;48.862;9.320;2022-08-05T14:26:18;3.08;;;1.20;;
37069;SDS011;22984;48.862;9.320;2022-08-05T14:28:44;5.95;;;1.27;;
37069;SDS011;22984;48.862;9.320;2022-08-05T14:31:10;3.17;;;1.23;;
37069;SDS011;22984;48.862;9.320;2022-08-05T14:33:36;2.28;;;1.23;;
37069;SDS011;22984;48.862;9.320;2022-08-05T14:36:02;3.20;;;1.42;;
37069;SDS011;22984;48.862;9.320;2022-08-05T14:38:28;4.10;;;1.50;;
37069;SDS011;22984;48.862;9.320;2022-08-05T14:40:54;4.67;;;1.43;;
37069;SDS011;22984;48.862;9.320;2022-08-05T14:43:21;3.97;;;1.30;;
37069;SDS011;22984;48.862;9.320;2022-08-05T14:45:47;2.25;;;1.60;;
37069;SDS011;22984;48.862;9.320;2022-08-05T14:48:13;10.00;;;1.77;;
37069;SDS011;22984;48.862;9.320;2022-08-05T14:50:39;9.50;;;1.70;;
37069;SDS011;22984;48.862;9.320;2022-08-05T14:53:05;6.72;;;1.95;;
37069;SDS011;22984;48.862;9.320;2022-08-05T14:55:31;11.85;;;2.80;;
37069;SDS011;22984;48.862;9.320;2022-08-05T14:57:57;11.18;;;1.90;;
37069;SDS011;22984;48.862;9.320;2022-08-05T15:00:23;7.00;;;1.95;;
37069;SDS011;22984;48.862;9.320;2022-08-05T15:02:50;5.10;;;2.33;;
37069;SDS011;22984;48.862;9.320;2022-08-05T15:05:16;9.15;;;2.47;;
37069;SDS011;22984;48.862;9.320;2022-08-05T15:07:42;9.30;;;2.20;;
37069;SDS011;22984;48.862;9.320;2022-08-05T15:10:08;9.75;;;2.03;;
37069;SDS011;22984;48.862;9.320;2022-08-05T15:12:34;3.72;;;2.30;;
37069;SDS011;22984;48.862;9.320;2022-08-05T15:15:00;2.35;;;2.15;;
37069;SDS011;22984;48.862;9.320;2022-08-05T15:17:26;6.60;;;2.40;;
37069;SDS011;22984;48.862;9.320;2022-08-05T15:19:52;4.40;;;2.10;;
37069;SDS011;22984;48.862;9.320;2022-08-05T15:22:18;4.80;;;2.28;;
37069;SDS011;22984;48.862;9.320;2022-08-05T15:24:44;4.97;;;2.50;;
37069;SDS011;22984;48.862;9.320;2022-08-05T15:27:10;3.37;;;2.40;;
37069;SDS011;22984;48.862;9.320;2022-08-05T15:29:36;7.40;;;2.63;;
37069;SDS011;22984;48.862;9.320;2022-08-05T15:32:02;9.23;;;2.17;;